Time;durP1;ratioP1;P1;durP2;ratioP2;P2;SDS_P1;SDS_P2;PMS_P1;PMS_P2;Temp;Humidity;BMP_temperature;BMP_pressure;BME280_temperature;BME280_humidity;BME280_pressure;Samples;Min_cycle;Max_cycle;Signal;HPM_P1;HPM_P2
2021/05/10 00:00:36;;;;;;;5.90;1.77;;;27.40;33.20;;;;;;5006830;28;20244;-42
2021/05/10 00:03:02;;;;;;;1.37;1.27;;;27.40;33.20;;;;;;5008892;28;20209;-42
2021/05/10 00:05:28;;;;;;;2.50;1.63;;;27.30;33.30;;;;;;5008552;28;20437;-43
2021/05/10 00:07:53;;;;;;;1.87;1.77;;;27.40;33.20;;;;;;5003036;28;20649;-42
2021/05/10 00:10:20;;;;;;;1.83;1.73;;;27.40;33.20;;;;;;5007799;28;20699;-42
2021/05/10 00:12:46;;;;;;;1.67;1.57;;;27.40;33.10;;;;;;5011580;28;20194;-42
2021/05/10 00:15:13;;;;;;;3.20;1.77;;;27.30;33.40;;;;;;5008547;28;20456;-42
2021/05/10 00:17:39;;;;;;;1.90;1.80;;;27.30;33.40;;;;;;5009869;28;21233;-42
2021/05/10 00:20:05;;;;;;;2.07;1.80;;;27.20;33.50;;;;;;5008250;28;20515;-42
2021/05/10 00:22:31;;;;;;;2.70;1.60;;;27.20;33.70;;;;;;5005880;28;20289;-42
2021/05/10 00:24:56;;;;;;;1.60;1.40;;;27.20;33.80;;;;;;5010965;28;20551;-43
2021/05/10 00:27:22;;;;;;;3.80;1.70;;;26.90;34.30;;;;;;5010110;28;20252;-45
2021/05/10 00:29:47;;;;;;;1.93;1.77;;;26.90;34.70;;;;;;5004178;28;20217;-42
2021/05/10 00:32:13;;;;;;;2.27;1.87;;;26.90;35.00;;;;;;5008043;28;20197;-42
2021/05/10 00:34:39;;;;;;;1.80;1.70;;;26.70;35.00;;;;;;5007020;28;20397;-42
2021/05/10 00:37:04;;;;;;;2.10;1.70;;;26.70;35.10;;;;;;5007967;28;20316;-42
2021/05/10 00:39:30;;;;;;;3.40;1.73;;;26.60;34.90;;;;;;5006071;28;20205;-42
2021/05/10 00:41:57;;;;;;;5.30;2.10;;;26.70;34.90;;;;;;5009593;28;20190;-43
2021/05/10 00:44:23;;;;;;;2.30;2.00;;;26.70;35.60;;;;;;5009281;28;20194;-41
2021/05/10 00:46:52;;;;;;;1.70;1.60;;;26.50;35.50;;;;;;5008154;28;20483;-42
2021/05/10 00:49:17;;;;;;;1.83;1.73;;;26.50;35.60;;;;;;5008660;28;20560;-44
2021/05/10 00:51:43;;;;;;;1.63;1.53;;;26.50;35.60;;;;;;5009353;28;20587;-43
2021/05/10 00:54:08;;;;;;;2.10;1.90;;;26.30;36.00;;;;;;5010674;28;20194;-42
2021/05/10 00:56:34;;;;;;;3.03;1.50;;;26.30;35.90;;;;;;5010494;28;20226;-43
2021/05/10 00:59:00;;;;;;;2.60;2.20;;;26.30;35.90;;;;;;5001127;28;20304;-43
2021/05/10 01:01:25;;;;;;;2.40;1.70;;;26.30;35.80;;;;;;5003930;28;20295;-42
2021/05/10 01:03:54;;;;;;;2.60;1.80;;;26.40;36.00;;;;;;5006698;28;20553;-42
2021/05/10 01:06:21;;;;;;;1.80;1.70;;;26.40;36.00;;;;;;5009119;28;20605;-42
2021/05/10 01:08:47;;;;;;;2.13;1.93;;;26.40;35.90;;;;;;5004658;28;20453;-43
2021/05/10 01:11:13;;;;;;;2.20;2.00;;;26.10;36.70;;;;;;5006345;28;20585;-42
2021/05/10 01:13:39;;;;;;;2.23;1.97;;;26.00;36.70;;;;;;5008250;28;20452;-43
2021/05/10 01:16:04;;;;;;;3.03;2.00;;;25.90;37.10;;;;;;4999097;28;20438;-45
2021/05/10 01:18:31;;;;;;;2.20;1.80;;;25.70;37.40;;;;;;5008400;28;20202;-41
2021/05/10 01:20:59;;;;;;;2.50;2.30;;;25.60;37.90;;;;;;5003269;28;20225;-46
2021/05/10 01:23:25;;;;;;;1.73;1.60;;;25.60;37.90;;;;;;5010329;28;20796;-42
2021/05/10 01:25:51;;;;;;;2.10;1.80;;;25.60;37.70;;;;;;5010169;28;20433;-42
2021/05/10 01:28:17;;;;;;;3.40;1.60;;;25.60;37.60;;;;;;5010128;28;20201;-43
2021/05/10 01:30:48;;;;;;;3.00;1.87;;;25.60;37.70;;;;;;5003569;28;20528;-43
2021/05/10 01:33:13;;;;;;;1.93;1.73;;;25.60;37.70;;;;;;5006347;28;20453;-41
2021/05/10 01:35:44;;;;;;;2.53;2.30;;;25.60;37.80;;;;;;5001810;28;22467;-43
2021/05/10 01:38:10;;;;;;;1.73;1.63;;;25.60;37.50;;;;;;5007073;28;20240;-46
2021/05/10 01:40:36;;;;;;;4.07;2.00;;;25.60;37.70;;;;;;5006239;28;20521;-43
2021/05/10 01:43:03;;;;;;;2.20;1.63;;;25.50;38.00;;;;;;5009269;28;20487;-46
2021/05/10 01:45:29;;;;;;;1.63;1.53;;;25.40;37.80;;;;;;5009382;28;20477;-46
2021/05/10 01:47:57;;;;;;;2.60;1.50;;;25.50;37.80;;;;;;5008438;28;20448;-44
2021/05/10 01:50:23;;;;;;;2.30;2.10;;;25.50;37.90;;;;;;5009439;28;20600;-47
2021/05/10 01:52:48;;;;;;;4.87;3.90;;;24.90;39.10;;;;;;5006780;28;20536;-44
2021/05/10 01:55:15;;;;;;;2.37;1.73;;;25.00;39.00;;;;;;5009044;28;20198;-45
2021/05/10 01:57:47;;;;;;;2.57;1.80;;;25.10;38.80;;;;;;5008632;28;20188;-43
2021/05/10 02:00:15;;;;;;;2.17;1.83;;;25.10;38.70;;;;;;5006786;28;20464;-47
2021/05/10 02:02:43;;;;;;;2.83;2.07;;;25.10;38.50;;;;;;5006297;28;20441;-48
2021/05/10 02:05:12;;;;;;;2.50;2.03;;;25.10;38.40;;;;;;5001135;28;20502;-43
2021/05/10 02:07:48;;;;;;;2.00;1.90;;;24.80;39.20;;;;;;5009483;28;20475;-48
2021/05/10 02:10:26;;;;;;;2.93;2.00;;;24.60;39.60;;;;;;5007813;28;20492;-45
2021/05/10 02:12:53;;;;;;;2.20;2.00;;;24.50;40.10;;;;;;5009387;28;20451;-46
2021/05/10 02:15:19;;;;;;;1.63;1.53;;;24.40;40.20;;;;;;5001754;28;20511;-45
2021/05/10 02:17:45;;;;;;;2.70;2.13;;;24.40;40.20;;;;;;5008086;28;20503;-47
2021/05/10 02:20:11;;;;;;;1.97;1.80;;;24.40;40.20;;;;;;5010699;28;20444;-47
2021/05/10 02:22:36;;;;;;;2.70;2.00;;;24.10;40.50;;;;;;5007322;28;20437;-43
2021/05/10 02:25:04;;;;;;;2.60;2.40;;;23.80;41.10;;;;;;5006152;28;20476;-46
2021/05/10 02:27:30;;;;;;;2.20;2.00;;;23.60;41.50;;;;;;5010179;28;20198;-47
2021/05/10 02:29:55;;;;;;;2.20;2.00;;;23.30;42.00;;;;;;5005051;28;20869;-45
2021/05/10 02:32:21;;;;;;;2.33;1.90;;;22.90;43.10;;;;;;5011482;28;20194;-42
2021/05/10 02:34:47;;;;;;;3.13;2.00;;;22.60;43.90;;;;;;5010206;28;20673;-43
2021/05/10 02:37:12;;;;;;;4.07;2.10;;;22.20;44.50;;;;;;5005738;28;21461;-44
2021/05/10 02:39:39;;;;;;;2.00;1.90;;;22.30;44.40;;;;;;5008966;28;20551;-45
2021/05/10 02:42:05;;;;;;;2.20;2.00;;;22.30;44.10;;;;;;5011308;28;20197;-42
2021/05/10 02:44:31;;;;;;;2.43;1.90;;;22.20;44.50;;;;;;5008926;28;20448;-44
2021/05/10 02:46:56;;;;;;;1.90;1.80;;;22.10;44.40;;;;;;5011925;28;20444;-44
2021/05/10 02:49:22;;;;;;;1.90;1.70;;;22.20;44.20;;;;;;5012517;28;20190;-43
2021/05/10 02:51:47;;;;;;;4.00;1.97;;;22.30;44.00;;;;;;5008640;28;20234;-43
2021/05/10 02:54:13;;;;;;;1.73;1.63;;;22.60;43.50;;;;;;5013234;28;20560;-42
2021/05/10 02:56:39;;;;;;;1.80;1.70;;;22.70;42.40;;;;;;5008689;28;20244;-42
2021/05/10 02:59:04;;;;;;;3.23;2.07;;;22.80;41.60;;;;;;5007862;28;20206;-44
2021/05/10 03:01:30;;;;;;;2.43;1.80;;;22.60;41.40;;;;;;5010321;28;20194;-42
2021/05/10 03:03:55;;;;;;;1.80;1.70;;;22.50;42.00;;;;;;5011432;28;20229;-43
2021/05/10 03:06:21;;;;;;;1.90;1.80;;;22.60;41.70;;;;;;5007086;28;20594;-43
2021/05/10 03:08:46;;;;;;;2.00;1.80;;;22.70;41.60;;;;;;5003525;28;20235;-44
2021/05/10 03:11:12;;;;;;;1.90;1.70;;;22.60;42.10;;;;;;5010480;28;20281;-46
2021/05/10 03:13:37;;;;;;;1.80;1.70;;;22.70;42.20;;;;;;5003952;28;20198;-43
2021/05/10 03:16:03;;;;;;;2.60;1.73;;;22.70;41.40;;;;;;5007073;28;20230;-42
2021/05/10 03:18:29;;;;;;;2.47;1.80;;;22.60;41.50;;;;;;5010743;28;20649;-43
2021/05/10 03:20:55;;;;;;;1.63;1.53;;;22.70;41.60;;;;;;5012142;28;20197;-42
2021/05/10 03:23:21;;;;;;;1.50;1.30;;;22.80;41.30;;;;;;5008893;28;20209;-44
2021/05/10 03:25:47;;;;;;;2.00;1.43;;;22.90;41.20;;;;;;5011238;28;20264;-42
2021/05/10 03:28:13;;;;;;;2.17;1.80;;;23.10;40.90;;;;;;5012052;28;20429;-44
2021/05/10 03:30:38;;;;;;;3.40;2.13;;;23.20;40.80;;;;;;5006820;28;20230;-42
2021/05/10 03:33:05;;;;;;;1.83;1.47;;;23.30;40.60;;;;;;5006972;28;20311;-42
2021/05/10 03:35:31;;;;;;;1.57;1.47;;;23.30;40.10;;;;;;5010510;28;20202;-42
2021/05/10 03:37:56;;;;;;;5.37;2.03;;;23.30;40.10;;;;;;5005023;28;21083;-43
2021/05/10 03:40:22;;;;;;;2.77;1.60;;;22.90;40.50;;;;;;5006695;28;20201;-43
2021/05/10 03:42:48;;;;;;;2.20;1.80;;;22.80;41.40;;;;;;5009227;28;20221;-43
2021/05/10 03:45:15;;;;;;;2.53;2.33;;;23.00;41.00;;;;;;5010794;28;20194;-44
2021/05/10 03:47:41;;;;;;;2.47;1.60;;;23.00;40.60;;;;;;5011238;28;20198;-42
2021/05/10 03:50:16;;;;;;;2.87;2.00;;;22.70;40.50;;;;;;5010467;28;20829;-41
2021/05/10 03:52:44;;;;;;;5.10;2.67;;;22.70;41.30;;;;;;5008069;28;20524;-43
2021/05/10 03:55:11;;;;;;;3.00;2.20;;;22.80;41.60;;;;;;5007729;28;20472;-42
2021/05/10 03:57:37;;;;;;;2.87;2.40;;;22.80;42.10;;;;;;5012903;28;20476;-42
2021/05/10 04:00:09;;;;;;;2.27;1.67;;;22.90;42.10;;;;;;5005392;28;20520;-43
2021/05/10 04:02:35;;;;;;;1.77;1.53;;;23.00;42.00;;;;;;5008131;28;20547;-42
2021/05/10 04:07:58;;;;;;;3.90;2.00;;;23.20;41.70;;;;;;5010409;28;20475;-42
2021/05/10 04:15:42;;;;;;;6.40;2.23;;;23.30;41.20;;;;;;5004917;28;20572;-43
2021/05/10 04:18:08;;;;;;;3.13;1.80;;;23.30;41.10;;;;;;5009876;28;20528;-42
2021/05/10 04:20:33;;;;;;;3.00;1.93;;;23.40;41.00;;;;;;5009345;28;20239;-43
2021/05/10 04:22:59;;;;;;;2.00;1.87;;;23.50;40.90;;;;;;5009726;28;20210;-42
2021/05/10 04:25:25;;;;;;;2.30;2.00;;;23.40;41.00;;;;;;5013109;28;20603;-42
2021/05/10 04:27:51;;;;;;;2.13;1.90;;;23.30;41.50;;;;;;5004385;28;20202;-44
2021/05/10 04:30:17;;;;;;;2.80;2.00;;;23.10;40.80;;;;;;5007854;28;20481;-43
2021/05/10 04:32:43;;;;;;;2.20;1.97;;;23.00;41.20;;;;;;5007010;28;20436;-43
2021/05/10 04:35:09;;;;;;;2.20;2.00;;;22.80;41.20;;;;;;5010185;28;20194;-43
2021/05/10 04:37:35;;;;;;;8.10;2.67;;;22.70;41.50;;;;;;5007904;28;20308;-42
2021/05/10 04:40:01;;;;;;;3.80;1.63;;;22.60;41.20;;;;;;5011391;28;20798;-42
2021/05/10 04:42:26;;;;;;;2.00;1.90;;;22.60;41.20;;;;;;5009364;28;20661;-44
2021/05/10 04:44:52;;;;;;;4.00;2.00;;;22.60;41.30;;;;;;5005913;28;20448;-42
2021/05/10 04:47:17;;;;;;;2.30;1.87;;;22.50;40.70;;;;;;5009895;28;20194;-44
2021/05/10 04:49:43;;;;;;;3.07;1.90;;;22.40;41.20;;;;;;5009518;28;20197;-43
2021/05/10 04:52:09;;;;;;;1.83;1.73;;;22.10;39.30;;;;;;5009653;28;20237;-43
2021/05/10 04:54:34;;;;;;;2.40;1.63;;;22.20;39.80;;;;;;5007447;28;20193;-43
2021/05/10 04:57:00;;;;;;;5.60;1.97;;;22.40;40.50;;;;;;4995617;28;20201;-44
2021/05/10 04:59:25;;;;;;;2.50;2.00;;;22.40;44.60;;;;;;5008928;28;20194;-42
2021/05/10 05:01:51;;;;;;;4.23;2.07;;;22.80;42.60;;;;;;5006622;28;20251;-42
2021/05/10 05:04:17;;;;;;;3.00;1.50;;;23.10;41.20;;;;;;5005151;28;20201;-43
2021/05/10 05:06:43;;;;;;;1.67;1.57;;;23.20;39.20;;;;;;5009269;28;20241;-43
2021/05/10 05:09:08;;;;;;;3.07;1.60;;;23.40;38.80;;;;;;5009382;28;20445;-42
2021/05/10 05:11:34;;;;;;;2.47;2.10;;;23.60;37.80;;;;;;5005856;28;20230;-42
2021/05/10 05:13:59;;;;;;;2.30;1.90;;;23.70;37.90;;;;;;5009171;28;20272;-42
2021/05/10 05:16:25;;;;;;;2.10;1.90;;;23.90;37.50;;;;;;5005410;28;20641;-43
2021/05/10 05:18:51;;;;;;;2.13;2.03;;;24.00;37.60;;;;;;5002577;28;20197;-43
2021/05/10 05:21:16;;;;;;;2.00;1.77;;;24.10;37.40;;;;;;5007797;28;20594;-43
2021/05/10 05:23:42;;;;;;;1.83;1.73;;;24.20;37.00;;;;;;5002224;28;20194;-45
2021/05/10 05:26:07;;;;;;;5.90;2.10;;;24.10;35.80;;;;;;5010970;28;20186;-44
2021/05/10 05:28:33;;;;;;;2.00;1.90;;;24.10;36.90;;;;;;5009882;28;20300;-42
2021/05/10 05:31:01;;;;;;;5.23;2.03;;;24.20;37.00;;;;;;5010173;28;20226;-43
2021/05/10 05:33:27;;;;;;;3.93;1.83;;;24.30;36.90;;;;;;5010408;28;20464;-42
2021/05/10 05:35:53;;;;;;;3.67;2.23;;;24.40;37.50;;;;;;5011633;28;20872;-42
2021/05/10 05:38:19;;;;;;;2.10;2.00;;;24.30;38.30;;;;;;5010776;28;20476;-42
2021/05/10 05:40:46;;;;;;;2.10;1.90;;;24.20;38.40;;;;;;5009668;28;20453;-43
2021/05/10 05:43:12;;;;;;;3.37;2.33;;;24.30;38.60;;;;;;5010686;28;20193;-43
2021/05/10 05:45:40;;;;;;;2.30;2.10;;;24.40;38.20;;;;;;5011388;28;20443;-42
2021/05/10 05:48:07;;;;;;;2.10;1.90;;;24.50;38.00;;;;;;5013644;28;20502;-42
2021/05/10 05:50:34;;;;;;;2.20;2.00;;;24.60;37.90;;;;;;5013036;28;20501;-42
2021/05/10 05:53:00;;;;;;;2.33;2.13;;;24.70;37.90;;;;;;5009447;28;20444;-41
2021/05/10 05:55:27;;;;;;;2.23;2.03;;;24.80;37.90;;;;;;5010406;28;20436;-44
2021/05/10 05:57:52;;;;;;;3.80;2.20;;;24.90;37.80;;;;;;5002213;28;20442;-42
2021/05/10 06:00:19;;;;;;;3.57;1.70;;;24.90;37.80;;;;;;5008268;28;20433;-44
2021/05/10 06:02:45;;;;;;;2.90;2.30;;;25.00;37.70;;;;;;5004908;28;20214;-44
2021/05/10 06:05:12;;;;;;;3.57;2.50;;;25.00;37.90;;;;;;5008813;28;20463;-41
2021/05/10 06:07:41;;;;;;;4.90;2.60;;;25.00;40.30;;;;;;5008697;28;20471;-41
2021/05/10 06:10:08;;;;;;;2.77;2.53;;;24.90;40.00;;;;;;5006856;28;20463;-42
2021/05/10 06:12:34;;;;;;;5.40;3.53;;;24.80;40.40;;;;;;5010617;28;20548;-42
2021/05/10 06:15:00;;;;;;;4.40;2.20;;;24.60;40.40;;;;;;5009618;28;20955;-44
2021/05/10 06:17:25;;;;;;;3.43;2.90;;;24.60;40.20;;;;;;5006084;28;20665;-42
2021/05/10 06:19:51;;;;;;;3.63;2.40;;;24.60;40.00;;;;;;5002426;28;20217;-42
2021/05/10 06:22:17;;;;;;;2.73;2.53;;;24.60;39.90;;;;;;5009102;28;20200;-42
2021/05/10 06:24:42;;;;;;;3.43;3.13;;;24.70;39.50;;;;;;5004425;28;20524;-42
2021/05/10 06:27:08;;;;;;;3.73;2.50;;;24.80;39.40;;;;;;5008676;28;20602;-41
2021/05/10 06:29:33;;;;;;;4.27;3.37;;;24.90;39.40;;;;;;5008112;28;20244;-43
2021/05/10 06:31:59;;;;;;;4.00;2.60;;;25.00;39.50;;;;;;5007647;28;20261;-42
2021/05/10 06:34:24;;;;;;;3.70;2.40;;;25.10;40.10;;;;;;5010551;28;20197;-43
2021/05/10 06:36:50;;;;;;;5.50;3.10;;;25.20;41.50;;;;;;5010077;28;20273;-41
2021/05/10 06:39:16;;;;;;;3.47;2.33;;;25.00;41.40;;;;;;5009533;28;20483;-42
2021/05/10 06:41:41;;;;;;;3.80;2.50;;;24.80;41.40;;;;;;5001797;28;20695;-41
2021/05/10 06:44:07;;;;;;;11.03;3.00;;;24.80;40.30;;;;;;5010086;28;20220;-42
2021/05/10 06:46:33;;;;;;;3.57;2.07;;;24.90;40.40;;;;;;5008786;28;20256;-43
2021/05/10 06:48:58;;;;;;;5.13;2.23;;;25.00;40.30;;;;;;5009119;28;20253;-42
2021/05/10 06:51:24;;;;;;;3.53;1.90;;;25.20;40.20;;;;;;5006002;28;20232;-43
2021/05/10 06:53:49;;;;;;;3.63;2.43;;;25.40;40.50;;;;;;5008291;28;20684;-43
2021/05/10 06:56:15;;;;;;;9.27;2.70;;;25.50;40.50;;;;;;5009881;28;20208;-43
2021/05/10 06:58:41;;;;;;;4.93;2.37;;;25.60;40.60;;;;;;5005552;28;20244;-43
2021/05/10 07:01:06;;;;;;;2.57;2.20;;;25.70;40.30;;;;;;4997499;28;20202;-44
2021/05/10 07:03:32;;;;;;;4.03;2.30;;;25.80;39.80;;;;;;5008660;28;20198;-42
2021/05/10 07:05:57;;;;;;;4.27;2.37;;;25.80;38.90;;;;;;5005042;28;20197;-43
2021/05/10 07:08:23;;;;;;;5.97;2.50;;;25.80;39.50;;;;;;5011492;28;20198;-43
2021/05/10 07:10:51;;;;;;;3.80;2.53;;;25.80;39.90;;;;;;5010772;28;20229;-44
2021/05/10 07:13:17;;;;;;;3.93;2.53;;;25.90;40.00;;;;;;5010241;28;20304;-44
2021/05/10 07:15:43;;;;;;;4.40;2.53;;;25.90;39.20;;;;;;5009982;28;20481;-43
2021/05/10 07:18:11;;;;;;;2.07;1.93;;;25.90;38.40;;;;;;5011032;28;20540;-44
2021/05/10 07:20:38;;;;;;;5.70;2.50;;;26.00;39.00;;;;;;5009096;28;20950;-45
2021/05/10 07:23:05;;;;;;;3.63;2.60;;;26.00;38.70;;;;;;5004545;28;20445;-45
2021/05/10 07:25:32;;;;;;;3.23;2.50;;;26.10;38.70;;;;;;5004606;28;20483;-44
2021/05/10 07:27:58;;;;;;;4.73;2.33;;;26.20;38.70;;;;;;5008762;28;20453;-43
2021/05/10 07:30:24;;;;;;;2.73;1.97;;;26.20;38.40;;;;;;5011567;28;20527;-43
2021/05/10 07:32:49;;;;;;;2.90;2.40;;;26.40;38.10;;;;;;5009431;28;20244;-43
2021/05/10 07:35:15;;;;;;;3.77;2.33;;;26.40;37.80;;;;;;5008092;28;20202;-43
2021/05/10 07:37:41;;;;;;;3.50;2.10;;;26.50;38.00;;;;;;5001466;28;20231;-43
2021/05/10 07:40:08;;;;;;;6.43;2.37;;;26.60;38.40;;;;;;5011201;28;20296;-42
2021/05/10 07:42:33;;;;;;;2.97;1.83;;;26.70;38.40;;;;;;5016305;28;20558;-43
2021/05/10 07:44:59;;;;;;;3.53;2.20;;;26.80;37.90;;;;;;5023044;28;20440;-44
2021/05/10 07:47:25;;;;;;;3.40;2.50;;;26.90;38.60;;;;;;5022331;28;20198;-45
2021/05/10 07:49:51;;;;;;;2.10;1.90;;;27.00;37.90;;;;;;5019910;28;20645;-46
2021/05/10 07:52:17;;;;;;;3.73;2.50;;;27.10;38.00;;;;;;5022271;28;20704;-43
2021/05/10 07:54:42;;;;;;;2.40;2.10;;;27.00;37.10;;;;;;5016674;28;20193;-43
2021/05/10 07:57:08;;;;;;;3.47;2.70;;;27.00;37.30;;;;;;5024606;28;20638;-43
2021/05/10 07:59:35;;;;;;;2.60;2.20;;;27.20;37.80;;;;;;5020044;28;20196;-44
2021/05/10 08:02:02;;;;;;;2.87;2.57;;;27.20;37.70;;;;;;5012148;28;20650;-43
2021/05/10 08:04:27;;;;;;;3.37;2.80;;;27.30;38.20;;;;;;5019917;28;20521;-44
2021/05/10 08:06:53;;;;;;;3.50;2.03;;;27.20;37.80;;;;;;5009962;28;20564;-46
2021/05/10 08:09:21;;;;;;;1.90;1.73;;;27.20;38.40;;;;;;5009071;28;20194;-46
2021/05/10 08:11:46;;;;;;;3.50;2.60;;;27.00;38.50;;;;;;5022920;28;20235;-43
2021/05/10 08:14:12;;;;;;;2.27;2.07;;;26.90;38.60;;;;;;5016001;28;20440;-44
2021/05/10 08:16:38;;;;;;;3.10;1.70;;;26.90;38.80;;;;;;5004923;28;20256;-44
2021/05/10 08:19:03;;;;;;;3.20;2.17;;;27.10;39.30;;;;;;5013353;28;20587;-43
2021/05/10 08:21:29;;;;;;;1.80;1.70;;;27.10;40.10;;;;;;5015424;28;21087;-43
2021/05/10 08:23:54;;;;;;;2.33;1.80;;;27.10;40.00;;;;;;5014761;28;20276;-44
2021/05/10 08:26:20;;;;;;;3.40;2.57;;;27.20;40.00;;;;;;5017658;28;20189;-44
2021/05/10 08:28:46;;;;;;;3.43;2.10;;;27.40;39.60;;;;;;5014291;28;21510;-42
2021/05/10 08:31:11;;;;;;;3.67;2.10;;;27.60;38.60;;;;;;5003884;28;20714;-44
2021/05/10 08:33:37;;;;;;;2.60;2.30;;;27.70;39.60;;;;;;5010632;28;20308;-43
2021/05/10 08:36:03;;;;;;;4.50;2.77;;;27.90;38.70;;;;;;5014839;28;20194;-44
2021/05/10 08:38:28;;;;;;;6.57;1.83;;;28.00;38.40;;;;;;5013252;28;20704;-43
2021/05/10 08:40:54;;;;;;;7.10;2.00;;;28.20;38.40;;;;;;5017209;28;20732;-45
2021/05/10 08:43:25;;;;;;;3.80;2.47;;;28.40;37.80;;;;;;5009754;28;20210;-43
2021/05/10 08:45:55;;;;;;;2.50;2.30;;;28.50;37.00;;;;;;5014726;28;20190;-45
2021/05/10 08:48:25;;;;;;;4.27;1.90;;;28.60;37.30;;;;;;5010572;28;20500;-43
2021/05/10 08:50:52;;;;;;;2.67;2.07;;;28.60;37.10;;;;;;5019167;28;20520;-43
2021/05/10 08:53:33;;;;;;;3.17;1.90;;;28.60;37.60;;;;;;5020362;28;20441;-44
2021/05/10 08:55:59;;;;;;;3.07;2.57;;;28.60;37.70;;;;;;5014080;28;20444;-44
2021/05/10 08:58:24;;;;;;;4.80;2.40;;;28.30;37.90;;;;;;5002020;28;20491;-43
2021/05/10 09:00:52;;;;;;;3.10;1.90;;;28.20;38.30;;;;;;5016409;28;20433;-43
2021/05/10 09:03:17;;;;;;;2.40;1.87;;;28.20;37.80;;;;;;5011101;28;21441;-43
2021/05/10 09:05:50;;;;;;;2.33;2.13;;;28.20;37.50;;;;;;4999955;28;20471;-45
2021/05/10 09:08:18;;;;;;;3.77;1.90;;;28.20;37.50;;;;;;5014192;28;20202;-43
2021/05/10 09:11:06;;;;;;;2.40;1.97;;;28.30;37.50;;;;;;5016929;28;20464;-44
2021/05/10 09:13:41;;;;;;;4.20;2.10;;;28.10;37.50;;;;;;5005588;28;20437;-43
2021/05/10 09:16:07;;;;;;;3.43;2.00;;;27.70;38.10;;;;;;5009347;28;20488;-46
2021/05/10 09:18:34;;;;;;;2.20;1.90;;;27.60;38.30;;;;;;5007855;28;20473;-46
2021/05/10 09:21:10;;;;;;;5.73;2.23;;;27.60;38.60;;;;;;5008215;28;20487;-46
2021/05/10 09:23:36;;;;;;;4.83;2.00;;;27.80;38.40;;;;;;5004100;28;20450;-43
2021/05/10 09:26:02;;;;;;;5.30;2.07;;;27.80;38.60;;;;;;5006882;28;20848;-44
2021/05/10 09:28:36;;;;;;;3.00;2.20;;;27.80;38.40;;;;;;5009576;28;20265;-43
2021/05/10 09:31:04;;;;;;;2.60;2.40;;;27.70;38.70;;;;;;5009698;28;20500;-43
2021/05/10 09:33:30;;;;;;;5.03;1.97;;;27.80;39.00;;;;;;5008847;28;20445;-44
2021/05/10 09:36:08;;;;;;;3.80;2.33;;;27.60;38.60;;;;;;5014162;28;20522;-42
2021/05/10 09:38:36;;;;;;;2.43;1.73;;;27.70;38.40;;;;;;5004671;28;20249;-43
2021/05/10 09:41:09;;;;;;;3.40;2.40;;;27.80;39.70;;;;;;5010614;28;20540;-43
2021/05/10 09:43:36;;;;;;;4.30;2.03;;;28.10;38.80;;;;;;5009910;28;20437;-43
2021/05/10 09:46:11;;;;;;;5.87;2.40;;;28.10;38.80;;;;;;5011357;28;20484;-45
2021/05/10 09:48:39;;;;;;;7.70;2.10;;;28.20;38.60;;;;;;5012796;28;20874;-45
2021/05/10 09:51:16;;;;;;;3.03;2.37;;;28.00;38.60;;;;;;5010244;28;20520;-45
2021/05/10 09:53:55;;;;;;;2.20;1.87;;;28.30;38.10;;;;;;5008548;28;20448;-43
2021/05/10 09:58:54;;;;;;;1.83;1.50;;;28.30;38.20;;;;;;4998252;28;20449;-43
2021/05/10 10:01:21;;;;;;;3.33;1.80;;;28.40;38.60;;;;;;5003908;28;20487;-43
2021/05/10 10:03:48;;;;;;;2.23;1.37;;;28.50;38.70;;;;;;5007060;28;20866;-45
2021/05/10 10:06:16;;;;;;;2.40;1.63;;;28.70;37.70;;;;;;5006961;28;20922;-44
2021/05/10 10:08:43;;;;;;;2.37;1.40;;;28.90;37.00;;;;;;5008877;28;20528;-47
2021/05/10 10:11:11;;;;;;;2.23;1.27;;;29.10;36.20;;;;;;5008730;28;21003;-43
2021/05/10 10:13:38;;;;;;;1.73;1.63;;;29.00;35.10;;;;;;5013494;28;20437;-43
2021/05/10 10:16:07;;;;;;;2.63;1.33;;;28.90;34.90;;;;;;5008875;28;20513;-44
2021/05/10 10:18:35;;;;;;;1.30;1.20;;;29.00;35.30;;;;;;5002148;28;20456;-43
2021/05/10 10:21:00;;;;;;;2.40;1.17;;;29.20;35.50;;;;;;4999983;28;20444;-43
2021/05/10 10:23:28;;;;;;;3.33;1.37;;;29.30;35.40;;;;;;5004308;28;20513;-44
2021/05/10 10:25:58;;;;;;;1.80;1.60;;;29.30;35.30;;;;;;5003289;28;20208;-43
2021/05/10 10:28:26;;;;;;;3.40;1.60;;;29.30;35.00;;;;;;5008545;28;20531;-44
2021/05/10 10:31:01;;;;;;;3.23;1.37;;;29.30;34.40;;;;;;5011758;28;20971;-45
2021/05/10 10:33:38;;;;;;;2.37;1.30;;;29.20;34.80;;;;;;5009754;28;20424;-44
2021/05/10 10:36:07;;;;;;;1.50;1.00;;;29.10;34.80;;;;;;5005865;28;20927;-43
2021/05/10 10:38:34;;;;;;;4.97;1.30;;;29.10;34.70;;;;;;5006544;28;20469;-43
2021/05/10 10:41:23;;;;;;;1.10;1.00;;;28.80;34.70;;;;;;5011234;28;20445;-43
2021/05/10 10:43:51;;;;;;;2.40;1.20;;;28.50;35.40;;;;;;5008302;28;20942;-43
2021/05/10 10:46:30;;;;;;;2.50;0.97;;;28.40;35.80;;;;;;5013018;28;20921;-43
2021/05/10 10:49:17;;;;;;;2.73;1.20;;;28.50;35.90;;;;;;5008915;28;20452;-45
2021/05/10 10:51:53;;;;;;;2.60;1.17;;;28.40;35.70;;;;;;5008846;28;20484;-43
2021/05/10 10:54:21;;;;;;;5.37;1.20;;;28.40;36.50;;;;;;5013356;28;20436;-43
2021/05/10 10:56:55;;;;;;;1.07;0.93;;;28.20;36.70;;;;;;5005776;28;20450;-43
2021/05/10 10:59:37;;;;;;;1.73;1.10;;;28.00;36.90;;;;;;5007792;28;20445;-43
2021/05/10 11:02:17;;;;;;;1.13;1.03;;;27.80;36.80;;;;;;5008271;28;20476;-44
2021/05/10 11:04:44;;;;;;;1.60;1.23;;;27.40;37.20;;;;;;5012209;28;20519;-44
2021/05/10 11:07:10;;;;;;;1.90;1.20;;;27.40;37.90;;;;;;5011368;28;21440;-43
2021/05/10 11:09:49;;;;;;;1.40;1.00;;;27.40;37.70;;;;;;5011117;28;20428;-43
2021/05/10 11:12:50;;;;;;;1.23;1.10;;;27.50;37.00;;;;;;5019583;28;20498;-44
2021/05/10 11:15:42;;;;;;;4.40;1.27;;;27.40;37.60;;;;;;5012133;28;20531;-43
2021/05/10 11:18:08;;;;;;;1.60;1.17;;;27.60;37.20;;;;;;5006599;28;20490;-43
2021/05/10 11:20:41;;;;;;;1.10;1.00;;;27.50;37.70;;;;;;5011987;28;20469;-43
2021/05/10 11:23:25;;;;;;;1.10;1.00;;;27.50;37.40;;;;;;5012129;28;20432;-43
2021/05/10 11:25:52;;;;;;;1.13;1.10;;;27.30;37.20;;;;;;5008989;28;20882;-43
2021/05/10 11:28:30;;;;;;;2.50;1.00;;;27.10;37.80;;;;;;5013475;28;20444;-43
2021/05/10 11:30:59;;;;;;;1.20;0.90;;;27.10;37.70;;;;;;5019183;28;20587;-44
2021/05/10 11:33:55;;;;;;;1.20;1.10;;;27.20;37.70;;;;;;5017344;28;20433;-43
2021/05/10 11:36:21;;;;;;;4.93;1.00;;;27.20;38.20;;;;;;5004131;28;20528;-43
2021/05/10 11:38:55;;;;;;;4.30;1.10;;;27.20;37.90;;;;;;5011257;28;20983;-43
2021/05/10 11:41:35;;;;;;;1.97;1.13;;;27.30;38.00;;;;;;5015915;28;20486;-46
2021/05/10 11:44:06;;;;;;;1.00;0.90;;;27.30;37.50;;;;;;5015513;28;20541;-44
2021/05/10 11:46:44;;;;;;;1.83;1.27;;;27.30;37.80;;;;;;5016790;28;20464;-44
2021/05/10 11:49:21;;;;;;;2.30;1.10;;;27.40;37.30;;;;;;5012974;28;20455;-44
2021/05/10 11:51:47;;;;;;;1.70;0.80;;;27.50;37.00;;;;;;5010866;28;20488;-43
2021/05/10 11:54:13;;;;;;;1.47;1.00;;;27.40;36.70;;;;;;5014224;28;20436;-44
2021/05/10 11:56:44;;;;;;;1.20;1.10;;;27.30;36.10;;;;;;5012710;28;20240;-44
2021/05/10 12:01:52;;;;;;;11.67;1.80;;;27.20;36.40;;;;;;5010511;28;20538;-44
2021/05/10 12:04:29;;;;;;;3.10;1.07;;;27.00;37.10;;;;;;5010580;28;20457;-44
2021/05/10 12:06:56;;;;;;;1.23;0.93;;;27.10;37.70;;;;;;5006105;28;20987;-45
2021/05/10 12:09:40;;;;;;;7.23;1.40;;;27.30;37.20;;;;;;5008977;28;20863;-43
2021/05/10 12:12:17;;;;;;;19.43;2.43;;;27.30;37.00;;;;;;5011815;28;20484;-45
2021/05/10 12:14:44;;;;;;;4.97;1.70;;;27.30;37.50;;;;;;4998960;28;20433;-45
2021/05/10 12:17:15;;;;;;;30.40;2.93;;;27.40;36.40;;;;;;5001625;28;20476;-44
2021/05/10 12:20:05;;;;;;;3.90;1.10;;;27.10;37.40;;;;;;5008684;28;20433;-48
2021/05/10 12:22:35;;;;;;;1.43;0.60;;;27.10;36.90;;;;;;5010863;28;20529;-43
2021/05/10 12:25:21;;;;;;;1.17;0.63;;;26.90;36.60;;;;;;5016229;28;20928;-44
2021/05/10 12:27:58;;;;;;;0.73;0.70;;;26.80;36.90;;;;;;5004119;28;21180;-44
2021/05/10 12:30:47;;;;;;;4.10;0.60;;;26.80;37.00;;;;;;5007696;28;20522;-48
2021/05/10 12:33:18;;;;;;;0.87;0.60;;;26.90;36.60;;;;;;5016172;28;20486;-43
2021/05/10 12:35:47;;;;;;;0.90;0.70;;;26.90;36.90;;;;;;5012511;28;20964;-44
2021/05/10 12:38:33;;;;;;;1.63;0.63;;;26.90;36.90;;;;;;5011150;28;20472;-43
2021/05/10 12:41:01;;;;;;;1.87;1.00;;;26.80;36.50;;;;;;5009585;28;20456;-45
2021/05/10 12:43:29;;;;;;;1.43;0.60;;;26.70;36.20;;;;;;5007360;28;21064;-43
2021/05/10 12:46:02;;;;;;;0.70;0.60;;;26.80;36.80;;;;;;5009814;28;20437;-44
2021/05/10 12:48:36;;;;;;;0.87;0.67;;;26.80;36.50;;;;;;5002752;28;20433;-44
2021/05/10 12:51:21;;;;;;;1.53;0.60;;;26.60;35.40;;;;;;5010641;28;20542;-43
2021/05/10 12:53:57;;;;;;;0.63;0.60;;;26.40;35.80;;;;;;5000835;28;20886;-44
2021/05/10 12:56:24;;;;;;;0.70;0.63;;;26.20;36.30;;;;;;4993216;28;20524;-42
2021/05/10 12:58:51;;;;;;;1.07;0.60;;;26.20;36.70;;;;;;5010341;28;20440;-44
2021/05/10 13:01:22;;;;;;;0.70;0.60;;;26.30;36.30;;;;;;5011434;28;20437;-43
2021/05/10 13:03:48;;;;;;;0.97;0.70;;;26.50;36.50;;;;;;5011578;28;20963;-45